createdAt,value
2022-12-13T00:00:54.823Z,2.70
2022-12-13T00:01:54.884Z,2.80
2022-12-13T00:02:54.820Z,2.80
2022-12-13T00:03:54.909Z,2.50
2022-12-13T00:04:54.848Z,2.70
2022-12-13T00:05:54.871Z,2.90
2022-12-13T00:06:54.888Z,2.70
2022-12-13T00:07:54.943Z,2.70
2022-12-13T00:08:54.920Z,2.50
2022-12-13T00:09:54.943Z,2.70
2022-12-13T00:10:54.966Z,2.30
2022-12-13T00:11:54.980Z,2.70
2022-12-13T00:12:55.000Z,2.50
2022-12-13T00:13:55.014Z,2.50
2022-12-13T00:14:55.037Z,2.40
2022-12-13T00:15:55.055Z,2.60
2022-12-13T00:16:55.151Z,2.60
2022-12-13T00:17:55.089Z,2.50
2022-12-13T00:18:55.101Z,2.80
2022-12-13T00:19:55.124Z,2.50
2022-12-13T00:20:55.136Z,2.60
2022-12-13T00:21:55.162Z,2.80
2022-12-13T00:22:55.181Z,2.50
2022-12-13T00:23:55.201Z,2.30
2022-12-13T00:24:55.215Z,2.20
2022-12-13T00:25:55.225Z,2.70
2022-12-13T00:26:55.249Z,2.90
2022-12-13T00:27:55.264Z,2.00
2022-12-13T00:28:55.302Z,2.60
2022-12-13T00:29:55.301Z,2.20
2022-12-13T00:30:55.362Z,2.10
2022-12-13T00:32:02.667Z,2.20
2022-12-13T00:32:55.376Z,2.30
2022-12-13T00:33:55.380Z,2.50
2022-12-13T00:34:55.405Z,2.10
2022-12-13T00:35:55.412Z,2.20
2022-12-13T00:36:55.451Z,2.20
2022-12-13T00:37:55.440Z,2.20
2022-12-13T00:38:55.467Z,2.40
2022-12-13T00:39:55.476Z,1.90
2022-12-13T00:40:55.501Z,1.90
2022-12-13T00:41:55.518Z,2.60
2022-12-13T00:42:55.529Z,2.20
2022-12-13T00:43:55.554Z,1.90
2022-12-13T00:44:55.565Z,2.10
2022-12-13T00:45:55.643Z,2.00
2022-12-13T00:46:55.601Z,2.00
2022-12-13T00:47:55.619Z,2.20
2022-12-13T00:48:55.661Z,2.20
2022-12-13T00:49:55.661Z,2.00
2022-12-13T00:50:55.673Z,2.00
2022-12-13T00:51:55.698Z,2.40
2022-12-13T00:52:55.708Z,2.00
2022-12-13T00:53:55.739Z,1.90
2022-12-13T00:54:55.750Z,2.10
2022-12-13T00:55:55.769Z,2.10
2022-12-13T00:56:55.779Z,2.10
2022-12-13T00:57:55.796Z,1.90
2022-12-13T00:58:55.823Z,1.80
2022-12-13T00:59:55.833Z,2.10
2022-12-13T01:00:55.875Z,2.10
2022-12-13T01:01:55.922Z,2.20
2022-12-13T01:02:55.931Z,1.90
2022-12-13T01:03:56.309Z,1.90
2022-12-13T01:04:55.945Z,2.10
2022-12-13T01:06:55.958Z,1.80
2022-12-13T01:07:56.044Z,1.90
2022-12-13T01:08:55.991Z,2.00
2022-12-13T01:09:56.019Z,2.00
2022-12-13T01:10:56.038Z,1.90
2022-12-13T01:11:56.051Z,1.70
2022-12-13T01:12:56.071Z,2.00
2022-12-13T01:13:56.088Z,1.80
2022-12-13T01:14:56.337Z,2.00
2022-12-13T01:15:56.118Z,1.90
2022-12-13T01:16:56.235Z,2.10
2022-12-13T01:17:56.162Z,1.90
2022-12-13T01:18:56.178Z,1.80
2022-12-13T01:19:56.197Z,1.80
2022-12-13T01:20:56.228Z,1.70
2022-12-13T01:21:56.230Z,1.60
2022-12-13T01:22:56.241Z,1.70
2022-12-13T01:23:56.268Z,1.80
2022-12-13T01:24:56.278Z,1.70
2022-12-13T01:25:56.301Z,2.00
2022-12-13T01:26:56.996Z,1.60
2022-12-13T01:27:56.330Z,2.00
2022-12-13T01:28:56.348Z,1.70
2022-12-13T01:29:56.372Z,1.40
